Shinsei Maru — JD2188 — position and weather

sailwx.info

Track history (hours):
 
Tides and Currents Weather Stations Pressure Air Temp Water Temp Dewpoint Dewpoint Depression Visibility Wind Speed Wind Dir Waves Ship Positions

Shinsei Maru

Last reported at 2018-Jun-25 00:00 UTC. Time now 2018-Jun-25 00:14 UTC.
Position N 35°31' E 139°46'.

Length 104 m; draft 6.5 m.

Type: Tanker. MMSI: 431301775.

Date/timePositionNaut miles runAvg speedWind from/ knotsBaromVisibWave heightAir tempDewpointWater temp
2018-Jun-25 00:00N 35°31' E 139°46'0 0.0
2018-Jun-24 23:30N 35°31' E 139°46'0 0.0
2018-Jun-24 22:57N 35°31' E 139°46'0 0.1
2018-Jun-24 22:24N 35°31' E 139°46'2 4.7
2018-Jun-24 22:00N 35°30' E 139°44'3 6.3
2018-Jun-24 21:30N 35°27' E 139°43'3 6.5
2018-Jun-24 21:00N 35°24' E 139°45'0 0.0
2018-Jun-24 20:21N 35°24' E 139°45'0 0.0
2018-Jun-24 19:57N 35°24' E 139°45'0 0.0
2018-Jun-24 19:30N 35°24' E 139°45'0 0.0
2018-Jun-24 18:54N 35°24' E 139°45'0 0.0
2018-Jun-24 18:27N 35°24' E 139°45'0 0.1
2018-Jun-24 18:00N 35°24' E 139°46'0 0.1
2018-Jun-24 17:27N 35°24' E 139°46'0 0.1
2018-Jun-24 17:00N 35°24' E 139°46'0 0.0
2018-Jun-24 16:30N 35°24' E 139°46'4 7.6
2018-Jun-24 16:01N 35°21' E 139°44'612.1
2018-Jun-24 15:30N 35°15' E 139°47'713.1
2018-Jun-24 15:01N 35°09' E 139°46'713.1
2018-Jun-24 14:30N 35°04' E 139°42'714.0
2018-Jun-24 14:00N 34°59' E 139°35'23212.4
2018-Jun-23 19:18N 33°45' E 135°08'513.2
2018-Jun-23 18:56N 33°49' E 135°05'613.3
2018-Jun-23 18:30N 33°53' E 135°01'713.2
2018-Jun-23 18:00N 33°60' E 135°02'713.3
2018-Jun-23 17:30N 34°06' E 135°04'3 5.8
2018-Jun-23 17:00N 34°07' E 135°07'0 0.0
2018-Jun-23 16:30N 34°07' E 135°07'0 0.0
2018-Jun-23 16:00N 34°07' E 135°07'0 0.0
2018-Jun-23 15:27N 34°07' E 135°07'0 0.0
2018-Jun-23 15:00N 34°07' E 135°07'0 0.0
2018-Jun-23 14:27N 34°07' E 135°07'0 0.0
2018-Jun-23 14:00N 34°07' E 135°07'0 0.0
2018-Jun-23 13:30N 34°07' E 135°07'0 0.0
2018-Jun-23 13:00N 34°07' E 135°07'0 0.0
2018-Jun-23 12:30N 34°07' E 135°07'0 0.0
2018-Jun-23 12:00N 34°07' E 135°07'0 0.0
2018-Jun-23 11:30N 34°07' E 135°07'0 0.0
2018-Jun-23 11:00N 34°07' E 135°07'0 0.0
2018-Jun-23 10:30N 34°07' E 135°07'0 0.0
2018-Jun-23 10:00N 34°07' E 135°07'0 0.0
2018-Jun-23 09:30N 34°07' E 135°07'0 0.0
2018-Jun-23 09:00N 34°07' E 135°07'0 0.0
2018-Jun-23 08:30N 34°07' E 135°07'0 0.0
2018-Jun-23 07:54N 34°07' E 135°07'0 0.0
2018-Jun-23 07:30N 34°07' E 135°07'0 0.0
2018-Jun-23 06:54N 34°07' E 135°07'0 0.0
2018-Jun-23 06:30N 34°07' E 135°07'0 0.0
2018-Jun-23 06:00N 34°07' E 135°07'0 1.0
2018-Jun-23 05:30N 34°08' E 135°07'0 0.4
2018-Jun-23 04:25N 34°08' E 135°07'0 0.0
2018-Jun-23 03:52N 34°08' E 135°07'0 0.0
2018-Jun-23 03:25N 34°08' E 135°07'0 0.0
2018-Jun-23 02:49N 34°08' E 135°07'0 0.1
2018-Jun-23 02:28N 34°08' E 135°07'0 0.1
2018-Jun-23 01:58N 34°08' E 135°07'0 0.1
2018-Jun-23 01:25N 34°08' E 135°07'0 0.0
2018-Jun-23 00:58N 34°08' E 135°07'0 0.0
2018-Jun-23 00:28N 34°08' E 135°07'0 0.0
2018-Jun-22 23:58N 34°08' E 135°07'0 0.0
2018-Jun-22 23:28N 34°08' E 135°07'0 0.0
2018-Jun-22 22:58N 34°08' E 135°07'0 0.0
2018-Jun-22 22:28N 34°08' E 135°07'0 0.0
2018-Jun-22 21:58N 34°08' E 135°07'0 0.0
2018-Jun-22 21:28N 34°08' E 135°07'0 0.0
2018-Jun-22 20:55N 34°08' E 135°07'0 0.0
2018-Jun-22 20:28N 34°08' E 135°07'0 0.0
2018-Jun-22 19:58N 34°08' E 135°07'0 0.1
2018-Jun-22 19:28N 34°08' E 135°07'1 2.9
2018-Jun-22 19:00N 34°08' E 135°05'612.9
2018-Jun-22 18:30N 34°02' E 135°03'714.1
2018-Jun-22 18:00N 33°55' E 135°02'713.0
2018-Jun-22 17:28N 33°48' E 135°06'  
2018-Jun-18 12:48N 33°44' E 135°10'412.3
2018-Jun-18 12:27N 33°47' E 135°06'512.3
2018-Jun-18 12:00N 33°52' E 135°03'611.9
2018-Jun-18 11:30N 33°57' E 135°01'612.6
2018-Jun-18 11:00N 34°04' E 135°02'510.4
2018-Jun-18 10:30N 34°07' E 135°07'1 1.1
2018-Jun-18 09:59N 34°07' E 135°07'0 0.0
2018-Jun-18 09:29N 34°07' E 135°07'0 0.0
2018-Jun-18 08:59N 34°07' E 135°07'0 0.0
2018-Jun-18 08:29N 34°07' E 135°07'0 0.0
2018-Jun-18 07:59N 34°07' E 135°07'0 0.0
2018-Jun-18 07:29N 34°07' E 135°07'0 0.0
2018-Jun-18 06:59N 34°07' E 135°07'0 0.0
2018-Jun-18 06:29N 34°07' E 135°07'0 0.0
2018-Jun-18 05:59N 34°07' E 135°07'0 0.0
2018-Jun-18 05:29N 34°07' E 135°07'0 0.0
2018-Jun-18 04:59N 34°07' E 135°07'0 0.2
2018-Jun-18 04:30N 34°07' E 135°07'4 8.6
2018-Jun-18 04:00N 34°11' E 135°06'2 4.5
2018-Jun-18 03:30N 34°13' E 135°09'0 0.0
2018-Jun-18 03:00N 34°13' E 135°09'0 0.0
2018-Jun-18 02:30N 34°13' E 135°09'0 0.0
2018-Jun-18 02:00N 34°13' E 135°09'0 0.0
2018-Jun-18 01:30N 34°13' E 135°09'0 0.0
2018-Jun-18 00:57N 34°13' E 135°09'0 0.0
2018-Jun-18 00:30N 34°13' E 135°09'0 0.0
2018-Jun-18 00:00N 34°13' E 135°09'0 0.0
2018-Jun-17 23:30N 34°13' E 135°09'0 0.0
2018-Jun-17 23:00N 34°13' E 135°09'0 0.0
2018-Jun-17 22:30N 34°13' E 135°09'0 0.1
2018-Jun-17 22:00N 34°13' E 135°08'0 0.1
2018-Jun-17 21:30N 34°13' E 135°09'0 0.0
2018-Jun-17 21:00N 34°13' E 135°09'0 0.0
2018-Jun-17 20:30N 34°13' E 135°09'0 0.0
2018-Jun-17 20:00N 34°13' E 135°09'0 0.0
2018-Jun-17 19:30N 34°13' E 135°09'0 0.0
2018-Jun-17 19:00N 34°13' E 135°09'0 0.0
2018-Jun-17 18:30N 34°13' E 135°09'0 0.0
2018-Jun-17 18:00N 34°13' E 135°09'0 0.0
2018-Jun-17 17:30N 34°13' E 135°09'0 0.0
2018-Jun-17 17:00N 34°13' E 135°09'0 0.0
2018-Jun-17 16:30N 34°13' E 135°09'0 0.0
2018-Jun-17 16:00N 34°13' E 135°09'0 0.0
2018-Jun-17 15:30N 34°13' E 135°09'0 0.0
2018-Jun-17 15:00N 34°13' E 135°09'0 0.0
2018-Jun-17 14:30N 34°13' E 135°09'0 0.0
2018-Jun-17 14:00N 34°13' E 135°09'0 0.0
2018-Jun-17 13:30N 34°13' E 135°09'0 0.0
2018-Jun-17 13:00N 34°13' E 135°09'0 0.0
2018-Jun-17 12:30N 34°13' E 135°09'0 0.0
2018-Jun-17 12:00N 34°13' E 135°09'0 0.0
2018-Jun-17 11:30N 34°13' E 135°09'0 0.0
2018-Jun-17 11:00N 34°13' E 135°09'0 0.0
2018-Jun-17 10:30N 34°13' E 135°09'0 0.0
2018-Jun-17 10:00N 34°13' E 135°09'0 0.0
2018-Jun-17 09:30N 34°13' E 135°09'0 0.0
2018-Jun-17 09:00N 34°13' E 135°09'0 0.0
2018-Jun-17 08:30N 34°13' E 135°09'0 0.0
2018-Jun-17 08:00N 34°13' E 135°09'0 0.0
2018-Jun-17 07:30N 34°13' E 135°09'0 0.0
2018-Jun-17 07:00N 34°13' E 135°09'0 0.0
2018-Jun-17 06:30N 34°13' E 135°09'0 0.0
2018-Jun-17 06:00N 34°13' E 135°09'0 0.0
2018-Jun-17 05:30N 34°13' E 135°09'1 3.0
2018-Jun-17 05:01N 34°13' E 135°07'611.9
2018-Jun-17 04:30N 34°07' E 135°04'713.2
2018-Jun-17 04:01N 34°01' E 135°02'713.4
2018-Jun-17 03:30N 33°54' E 135°02'813.2
2018-Jun-17 02:56N 33°48' E 135°07'23511.6
2018-Jun-16 06:40N 35°04' E 139°37'314.5
2018-Jun-16 06:27N 35°06' E 139°40'614.5
2018-Jun-16 06:00N 35°10' E 139°45'612.3
2018-Jun-16 05:30N 35°16' E 139°45'612.7
2018-Jun-16 05:00N 35°22' E 139°42'5 9.2
2018-Jun-16 04:30N 35°27' E 139°41'1 2.8
2018-Jun-16 04:00N 35°28' E 139°40'0 0.0
2018-Jun-16 03:30N 35°28' E 139°40'0 0.0
2018-Jun-16 03:00N 35°28' E 139°40'0 0.0
2018-Jun-16 02:30N 35°28' E 139°40'0 0.0
2018-Jun-16 02:00N 35°28' E 139°40'0 0.0
2018-Jun-16 01:30N 35°28' E 139°40'0 0.0
2018-Jun-16 01:00N 35°28' E 139°40'0 0.0
2018-Jun-16 00:30N 35°28' E 139°40'0 0.0
2018-Jun-16 00:00N 35°28' E 139°40'0 0.3
2018-Jun-15 23:30N 35°28' E 139°40'2 3.9
2018-Jun-15 23:00N 35°27' E 139°42'4 7.6
2018-Jun-15 22:30N 35°24' E 139°45'0 0.2
2018-Jun-15 21:41N 35°24' E 139°45'0 0.0
2018-Jun-15 21:29N 35°24' E 139°45'0 0.0
2018-Jun-15 20:59N 35°24' E 139°45'0 0.0
2018-Jun-15 20:29N 35°24' E 139°45'0 0.0
2018-Jun-15 19:50N 35°24' E 139°45'0 0.0
2018-Jun-15 19:26N 35°24' E 139°45'0 0.0
2018-Jun-15 18:56N 35°24' E 139°45'0 0.0
2018-Jun-15 18:26N 35°24' E 139°45'0 0.0
2018-Jun-15 17:50N 35°24' E 139°45'0 0.0
2018-Jun-15 17:14N 35°24' E 139°45'0 0.0
2018-Jun-15 16:47N 35°24' E 139°45'0 0.0
2018-Jun-15 16:29N 35°24' E 139°45'0 0.0
2018-Jun-15 15:59N 35°24' E 139°45'0 0.0
2018-Jun-15 15:29N 35°24' E 139°45'0 0.0
2018-Jun-15 14:56N 35°24' E 139°45'0 0.0
2018-Jun-15 14:29N 35°24' E 139°45'0 0.0
2018-Jun-15 13:59N 35°24' E 139°45'0 0.1
2018-Jun-15 13:29N 35°24' E 139°45'0 0.0
2018-Jun-15 12:59N 35°24' E 139°45'0 0.0
2018-Jun-15 12:29N 35°24' E 139°45'0 0.0
2018-Jun-15 11:59N 35°24' E 139°45'0 0.5
2018-Jun-15 11:31N 35°24' E 139°45'612.6
2018-Jun-15 11:00N 35°29' E 139°50'8 1.2
2018-Jun-15 03:55N 35°29' E 140°01'  
Track history (hours):
 
Tides and Currents Weather Stations Pressure Air Temp Water Temp Dewpoint Dewpoint Depression Visibility Wind Speed Wind Dir Waves Ship Positions

Shinsei Maru

Last reported at 2018-Jun-25 00:00 UTC. Time now 2018-Jun-25 00:14 UTC.
Position N 35°31' E 139°46'.

Length 104 m; draft 6.5 m.

Type: Tanker. MMSI: 431301775.

Date/timePositionNaut miles runAvg speedWind from/ knotsBaromVisibWave heightAir tempDewpointWater temp
2018-Jun-25 00:00N 35°31' E 139°46'0 0.0
2018-Jun-24 23:30N 35°31' E 139°46'0 0.0
2018-Jun-24 22:57N 35°31' E 139°46'0 0.1
2018-Jun-24 22:24N 35°31' E 139°46'2 4.7
2018-Jun-24 22:00N 35°30' E 139°44'3 6.3
2018-Jun-24 21:30N 35°27' E 139°43'3 6.5
2018-Jun-24 21:00N 35°24' E 139°45'0 0.0
2018-Jun-24 20:21N 35°24' E 139°45'0 0.0
2018-Jun-24 19:57N 35°24' E 139°45'0 0.0
2018-Jun-24 19:30N 35°24' E 139°45'0 0.0
2018-Jun-24 18:54N 35°24' E 139°45'0 0.0
2018-Jun-24 18:27N 35°24' E 139°45'0 0.1
2018-Jun-24 18:00N 35°24' E 139°46'0 0.1
2018-Jun-24 17:27N 35°24' E 139°46'0 0.1
2018-Jun-24 17:00N 35°24' E 139°46'0 0.0
2018-Jun-24 16:30N 35°24' E 139°46'4 7.6
2018-Jun-24 16:01N 35°21' E 139°44'612.1
2018-Jun-24 15:30N 35°15' E 139°47'713.1
2018-Jun-24 15:01N 35°09' E 139°46'713.1
2018-Jun-24 14:30N 35°04' E 139°42'714.0
2018-Jun-24 14:00N 34°59' E 139°35'23212.4
2018-Jun-23 19:18N 33°45' E 135°08'513.2
2018-Jun-23 18:56N 33°49' E 135°05'613.3
2018-Jun-23 18:30N 33°53' E 135°01'713.2
2018-Jun-23 18:00N 33°60' E 135°02'713.3
2018-Jun-23 17:30N 34°06' E 135°04'3 5.8
2018-Jun-23 17:00N 34°07' E 135°07'0 0.0
2018-Jun-23 16:30N 34°07' E 135°07'0 0.0
2018-Jun-23 16:00N 34°07' E 135°07'0 0.0
2018-Jun-23 15:27N 34°07' E 135°07'0 0.0
2018-Jun-23 15:00N 34°07' E 135°07'0 0.0
2018-Jun-23 14:27N 34°07' E 135°07'0 0.0
2018-Jun-23 14:00N 34°07' E 135°07'0 0.0
2018-Jun-23 13:30N 34°07' E 135°07'0 0.0
2018-Jun-23 13:00N 34°07' E 135°07'0 0.0
2018-Jun-23 12:30N 34°07' E 135°07'0 0.0
2018-Jun-23 12:00N 34°07' E 135°07'0 0.0
2018-Jun-23 11:30N 34°07' E 135°07'0 0.0
2018-Jun-23 11:00N 34°07' E 135°07'0 0.0
2018-Jun-23 10:30N 34°07' E 135°07'0 0.0
2018-Jun-23 10:00N 34°07' E 135°07'0 0.0
2018-Jun-23 09:30N 34°07' E 135°07'0 0.0
2018-Jun-23 09:00N 34°07' E 135°07'0 0.0
2018-Jun-23 08:30N 34°07' E 135°07'0 0.0
2018-Jun-23 07:54N 34°07' E 135°07'0 0.0
2018-Jun-23 07:30N 34°07' E 135°07'0 0.0
2018-Jun-23 06:54N 34°07' E 135°07'0 0.0
2018-Jun-23 06:30N 34°07' E 135°07'0 0.0
2018-Jun-23 06:00N 34°07' E 135°07'0 1.0
2018-Jun-23 05:30N 34°08' E 135°07'0 0.4
2018-Jun-23 04:25N 34°08' E 135°07'0 0.0
2018-Jun-23 03:52N 34°08' E 135°07'0 0.0
2018-Jun-23 03:25N 34°08' E 135°07'0 0.0
2018-Jun-23 02:49N 34°08' E 135°07'0 0.1
2018-Jun-23 02:28N 34°08' E 135°07'0 0.1
2018-Jun-23 01:58N 34°08' E 135°07'0 0.1
2018-Jun-23 01:25N 34°08' E 135°07'0 0.0
2018-Jun-23 00:58N 34°08' E 135°07'0 0.0
2018-Jun-23 00:28N 34°08' E 135°07'0 0.0
2018-Jun-22 23:58N 34°08' E 135°07'0 0.0
2018-Jun-22 23:28N 34°08' E 135°07'0 0.0
2018-Jun-22 22:58N 34°08' E 135°07'0 0.0
2018-Jun-22 22:28N 34°08' E 135°07'0 0.0
2018-Jun-22 21:58N 34°08' E 135°07'0 0.0
2018-Jun-22 21:28N 34°08' E 135°07'0 0.0
2018-Jun-22 20:55N 34°08' E 135°07'0 0.0
2018-Jun-22 20:28N 34°08' E 135°07'0 0.0
2018-Jun-22 19:58N 34°08' E 135°07'0 0.1
2018-Jun-22 19:28N 34°08' E 135°07'1 2.9
2018-Jun-22 19:00N 34°08' E 135°05'612.9
2018-Jun-22 18:30N 34°02' E 135°03'714.1
2018-Jun-22 18:00N 33°55' E 135°02'713.0
2018-Jun-22 17:28N 33°48' E 135°06'  
2018-Jun-18 12:48N 33°44' E 135°10'412.3
2018-Jun-18 12:27N 33°47' E 135°06'512.3
2018-Jun-18 12:00N 33°52' E 135°03'611.9
2018-Jun-18 11:30N 33°57' E 135°01'612.6
2018-Jun-18 11:00N 34°04' E 135°02'510.4
2018-Jun-18 10:30N 34°07' E 135°07'1 1.1
2018-Jun-18 09:59N 34°07' E 135°07'0 0.0
2018-Jun-18 09:29N 34°07' E 135°07'0 0.0
2018-Jun-18 08:59N 34°07' E 135°07'0 0.0
2018-Jun-18 08:29N 34°07' E 135°07'0 0.0
2018-Jun-18 07:59N 34°07' E 135°07'0 0.0
2018-Jun-18 07:29N 34°07' E 135°07'0 0.0
2018-Jun-18 06:59N 34°07' E 135°07'0 0.0
2018-Jun-18 06:29N 34°07' E 135°07'0 0.0
2018-Jun-18 05:59N 34°07' E 135°07'0 0.0
2018-Jun-18 05:29N 34°07' E 135°07'0 0.0
2018-Jun-18 04:59N 34°07' E 135°07'0 0.2
2018-Jun-18 04:30N 34°07' E 135°07'4 8.6
2018-Jun-18 04:00N 34°11' E 135°06'2 4.5
2018-Jun-18 03:30N 34°13' E 135°09'0 0.0
2018-Jun-18 03:00N 34°13' E 135°09'0 0.0
2018-Jun-18 02:30N 34°13' E 135°09'0 0.0
2018-Jun-18 02:00N 34°13' E 135°09'0 0.0
2018-Jun-18 01:30N 34°13' E 135°09'0 0.0
2018-Jun-18 00:57N 34°13' E 135°09'0 0.0
2018-Jun-18 00:30N 34°13' E 135°09'0 0.0
2018-Jun-18 00:00N 34°13' E 135°09'0 0.0
2018-Jun-17 23:30N 34°13' E 135°09'0 0.0
2018-Jun-17 23:00N 34°13' E 135°09'0 0.0
2018-Jun-17 22:30N 34°13' E 135°09'0 0.1
2018-Jun-17 22:00N 34°13' E 135°08'0 0.1
2018-Jun-17 21:30N 34°13' E 135°09'0 0.0
2018-Jun-17 21:00N 34°13' E 135°09'0 0.0
2018-Jun-17 20:30N 34°13' E 135°09'0 0.0
2018-Jun-17 20:00N 34°13' E 135°09'0 0.0
2018-Jun-17 19:30N 34°13' E 135°09'0 0.0
2018-Jun-17 19:00N 34°13' E 135°09'0 0.0
2018-Jun-17 18:30N 34°13' E 135°09'0 0.0
2018-Jun-17 18:00N 34°13' E 135°09'0 0.0
2018-Jun-17 17:30N 34°13' E 135°09'0 0.0
2018-Jun-17 17:00N 34°13' E 135°09'0 0.0
2018-Jun-17 16:30N 34°13' E 135°09'0 0.0
2018-Jun-17 16:00N 34°13' E 135°09'0 0.0
2018-Jun-17 15:30N 34°13' E 135°09'0 0.0
2018-Jun-17 15:00N 34°13' E 135°09'0 0.0
2018-Jun-17 14:30N 34°13' E 135°09'0 0.0
2018-Jun-17 14:00N 34°13' E 135°09'0 0.0
2018-Jun-17 13:30N 34°13' E 135°09'0 0.0
2018-Jun-17 13:00N 34°13' E 135°09'0 0.0
2018-Jun-17 12:30N 34°13' E 135°09'0 0.0
2018-Jun-17 12:00N 34°13' E 135°09'0 0.0
2018-Jun-17 11:30N 34°13' E 135°09'0 0.0
2018-Jun-17 11:00N 34°13' E 135°09'0 0.0
2018-Jun-17 10:30N 34°13' E 135°09'0 0.0
2018-Jun-17 10:00N 34°13' E 135°09'0 0.0
2018-Jun-17 09:30N 34°13' E 135°09'0 0.0
2018-Jun-17 09:00N 34°13' E 135°09'0 0.0
2018-Jun-17 08:30N 34°13' E 135°09'0 0.0
2018-Jun-17 08:00N 34°13' E 135°09'0 0.0
2018-Jun-17 07:30N 34°13' E 135°09'0 0.0
2018-Jun-17 07:00N 34°13' E 135°09'0 0.0
2018-Jun-17 06:30N 34°13' E 135°09'0 0.0
2018-Jun-17 06:00N 34°13' E 135°09'0 0.0
2018-Jun-17 05:30N 34°13' E 135°09'1 3.0
2018-Jun-17 05:01N 34°13' E 135°07'611.9
2018-Jun-17 04:30N 34°07' E 135°04'713.2
2018-Jun-17 04:01N 34°01' E 135°02'713.4
2018-Jun-17 03:30N 33°54' E 135°02'813.2
2018-Jun-17 02:56N 33°48' E 135°07'23511.6
2018-Jun-16 06:40N 35°04' E 139°37'314.5
2018-Jun-16 06:27N 35°06' E 139°40'614.5
2018-Jun-16 06:00N 35°10' E 139°45'612.3
2018-Jun-16 05:30N 35°16' E 139°45'612.7
2018-Jun-16 05:00N 35°22' E 139°42'5 9.2
2018-Jun-16 04:30N 35°27' E 139°41'1 2.8
2018-Jun-16 04:00N 35°28' E 139°40'0 0.0
2018-Jun-16 03:30N 35°28' E 139°40'0 0.0
2018-Jun-16 03:00N 35°28' E 139°40'0 0.0
2018-Jun-16 02:30N 35°28' E 139°40'0 0.0
2018-Jun-16 02:00N 35°28' E 139°40'0 0.0
2018-Jun-16 01:30N 35°28' E 139°40'0 0.0
2018-Jun-16 01:00N 35°28' E 139°40'0 0.0
2018-Jun-16 00:30N 35°28' E 139°40'0 0.0
2018-Jun-16 00:00N 35°28' E 139°40'0 0.3
2018-Jun-15 23:30N 35°28' E 139°40'2 3.9
2018-Jun-15 23:00N 35°27' E 139°42'4 7.6
2018-Jun-15 22:30N 35°24' E 139°45'0 0.2
2018-Jun-15 21:41N 35°24' E 139°45'0 0.0
2018-Jun-15 21:29N 35°24' E 139°45'0 0.0
2018-Jun-15 20:59N 35°24' E 139°45'0 0.0
2018-Jun-15 20:29N 35°24' E 139°45'0 0.0
2018-Jun-15 19:50N 35°24' E 139°45'0 0.0
2018-Jun-15 19:26N 35°24' E 139°45'0 0.0
2018-Jun-15 18:56N 35°24' E 139°45'0 0.0
2018-Jun-15 18:26N 35°24' E 139°45'0 0.0
2018-Jun-15 17:50N 35°24' E 139°45'0 0.0
2018-Jun-15 17:14N 35°24' E 139°45'0 0.0
2018-Jun-15 16:47N 35°24' E 139°45'0 0.0
2018-Jun-15 16:29N 35°24' E 139°45'0 0.0
2018-Jun-15 15:59N 35°24' E 139°45'0 0.0
2018-Jun-15 15:29N 35°24' E 139°45'0 0.0
2018-Jun-15 14:56N 35°24' E 139°45'0 0.0
2018-Jun-15 14:29N 35°24' E 139°45'0 0.0
2018-Jun-15 13:59N 35°24' E 139°45'0 0.1
2018-Jun-15 13:29N 35°24' E 139°45'0 0.0
2018-Jun-15 12:59N 35°24' E 139°45'0 0.0
2018-Jun-15 12:29N 35°24' E 139°45'0 0.0
2018-Jun-15 11:59N 35°24' E 139°45'0 0.5
2018-Jun-15 11:31N 35°24' E 139°45'612.6
2018-Jun-15 11:00N 35°29' E 139°50'8 1.2
2018-Jun-15 03:55N 35°29' E 140°01'  

Dump ship's entire track history